Time;durP1;ratioP1;P1;durP2;ratioP2;P2;SDS_P1;SDS_P2;PMS_P1;PMS_P2;Temp;Humidity;BMP_temperature;BMP_pressure;BME280_temperature;BME280_humidity;BME280_pressure;Samples;Min_cycle;Max_cycle;Signal;HPM_P1;HPM_P2
2022/04/05 00:01:16;;;;;;;10.20;9.13;;;;;;;3.87;94.64;99322.63;7396273;19;20481;-65
2022/04/05 00:03:44;;;;;;;10.23;9.23;;;;;;;3.90;94.26;99327.75;7395822;19;20015;-65
2022/04/05 00:06:12;;;;;;;10.25;9.10;;;;;;;3.92;94.26;99329.44;7395883;19;20018;-65
2022/04/05 00:08:40;;;;;;;10.60;9.57;;;;;;;3.95;93.99;99319.91;7394688;19;20018;-65
2022/04/05 00:11:09;;;;;;;10.32;9.32;;;;;;;3.97;93.82;99319.00;7394588;19;20018;-65
2022/04/05 00:13:40;;;;;;;10.70;8.52;;;;;;;3.99;93.24;99311.19;7395348;19;20019;-65
2022/04/05 00:16:10;;;;;;;10.77;9.13;;;;;;;4.01;93.13;99320.66;7396492;19;20023;-65
2022/04/05 00:18:39;;;;;;;10.05;9.05;;;;;;;4.03;93.03;99320.59;7395703;19;20541;-66
2022/04/05 00:21:07;;;;;;;8.63;7.72;;;;;;;4.06;92.91;99321.41;7391294;19;20029;-65
2022/04/05 00:23:35;;;;;;;9.07;8.18;;;;;;;4.10;92.38;99324.81;7394142;19;20035;-65
2022/04/05 00:26:04;;;;;;;9.73;8.73;;;;;;;4.13;92.35;99334.28;7394085;19;20022;-65
2022/04/05 00:28:32;;;;;;;8.77;7.97;;;;;;;4.15;92.06;99325.59;7394152;19;20036;-65
2022/04/05 00:31:03;;;;;;;8.60;7.70;;;;;;;4.17;92.30;99316.03;7394110;19;20039;-65
2022/04/05 00:33:31;;;;;;;8.15;7.35;;;;;;;4.19;91.61;99319.44;7393977;19;20014;-65
2022/04/05 00:35:59;;;;;;;7.60;6.90;;;;;;;4.22;91.28;99319.41;7393865;19;20022;-65
2022/04/05 00:38:28;;;;;;;7.28;6.57;;;;;;;4.27;91.24;99323.66;7393958;19;20019;-64
2022/04/05 00:40:56;;;;;;;6.50;5.90;;;;;;;4.30;90.92;99334.84;7395059;19;20485;-65
2022/04/05 00:43:24;;;;;;;7.07;6.45;;;;;;;4.33;90.65;99324.38;7394822;19;20018;-65
2022/04/05 00:45:54;;;;;;;7.45;6.47;;;;;;;4.37;90.56;99323.47;7393175;19;20595;-65
2022/04/05 00:48:31;;;;;;;6.72;6.13;;;;;;;4.40;90.50;99322.53;7393553;19;20019;-65
2022/04/05 00:50:59;;;;;;;6.75;6.15;;;;;;;4.42;90.09;99325.09;7395631;19;20032;-65
2022/04/05 00:53:30;;;;;;;6.80;6.10;;;;;;;4.44;90.30;99331.97;7394511;19;20023;-65
2022/04/05 00:56:00;;;;;;;6.82;6.13;;;;;;;4.46;90.31;99327.63;7392986;19;20435;-65
2022/04/05 00:58:30;;;;;;;7.30;6.60;;;;;;;4.47;90.06;99329.31;7393204;19;20018;-65
2022/04/05 01:01:00;;;;;;;6.68;6.07;;;;;;;4.49;90.37;99324.09;7392756;19;20473;-65
2022/04/05 01:03:39;;;;;;;7.22;6.53;;;;;;;4.50;89.91;99341.38;7394070;19;20026;-65
2022/04/05 01:06:07;;;;;;;6.88;6.28;;;;;;;4.48;89.84;99325.84;7394742;19;20070;-65
2022/04/05 01:08:37;;;;;;;6.47;5.82;;;;;;;4.50;90.22;99336.19;7395873;19;20042;-64
2022/04/05 01:11:05;;;;;;;6.22;5.63;;;;;;;4.49;89.94;99334.50;7396059;19;20015;-65
2022/04/05 01:13:34;;;;;;;7.18;6.45;;;;;;;4.50;90.10;99328.41;7396154;19;20018;-65
2022/04/05 01:16:02;;;;;;;6.22;5.70;;;;;;;4.51;90.24;99332.72;7392632;19;20039;-65
2022/04/05 01:18:31;;;;;;;6.70;6.07;;;;;;;4.52;90.38;99329.22;7394428;19;20047;-65
2022/04/05 01:21:02;;;;;;;6.32;5.75;;;;;;;4.51;90.27;99356.97;7392469;19;20018;-65
2022/04/05 01:23:30;;;;;;;6.22;5.65;;;;;;;4.50;90.30;99339.66;7392553;19;20015;-65
2022/04/05 01:26:01;;;;;;;6.47;5.88;;;;;;;4.50;90.82;99343.97;7394160;19;20019;-65
2022/04/05 01:28:29;;;;;;;6.70;6.00;;;;;;;4.48;90.96;99346.59;7394508;19;20014;-65
2022/04/05 01:30:57;;;;;;;6.05;5.53;;;;;;;4.50;90.98;99362.16;7393007;19;20022;-65
2022/04/05 01:33:25;;;;;;;6.20;5.50;;;;;;;4.48;91.16;99343.16;7397956;19;20034;-65
2022/04/05 01:35:53;;;;;;;6.57;5.57;;;;;;;4.47;91.59;99338.84;7401969;19;20028;-65
2022/04/05 01:38:22;;;;;;;6.97;6.38;;;;;;;4.45;91.62;99336.28;7398588;19;20485;-64
2022/04/05 01:40:51;;;;;;;6.47;5.82;;;;;;;4.42;92.34;99346.72;7400978;19;20366;-65
2022/04/05 01:43:21;;;;;;;5.85;5.35;;;;;;;4.40;92.44;99344.16;7400588;19;20037;-64
2022/04/05 01:45:49;;;;;;;6.20;5.68;;;;;;;4.38;92.84;99350.28;7398851;19;20027;-65
2022/04/05 01:48:18;;;;;;;7.25;6.45;;;;;;;4.35;93.68;99365.91;7398399;19;20022;-65
2022/04/05 01:50:46;;;;;;;8.35;7.13;;;;;;;4.32;93.56;99346.06;7398377;19;20014;-65
2022/04/05 01:53:14;;;;;;;8.02;7.07;;;;;;;4.29;94.13;99350.44;7398140;19;20023;-65
2022/04/05 01:55:42;;;;;;;8.68;7.88;;;;;;;4.26;94.64;99351.38;7400874;19;20035;-65
2022/04/05 01:58:10;;;;;;;7.72;6.93;;;;;;;4.21;95.33;99348.00;7400711;19;20031;-65
2022/04/05 02:00:41;;;;;;;8.25;7.45;;;;;;;4.19;94.82;99360.97;7400701;19;20022;-65
2022/04/05 02:03:10;;;;;;;8.65;7.85;;;;;;;4.17;94.88;99349.78;7397526;19;20478;-65
2022/04/05 02:05:38;;;;;;;9.10;7.82;;;;;;;4.16;95.53;99355.03;7400501;19;20110;-65
2022/04/05 02:08:07;;;;;;;9.30;8.40;;;;;;;4.14;95.42;99354.19;7397604;19;20504;-66
2022/04/05 02:10:35;;;;;;;10.30;9.20;;;;;;;4.11;95.92;99347.31;7400221;19;20015;-65
2022/04/05 02:13:03;;;;;;;9.32;8.43;;;;;;;4.11;95.44;99356.81;7399400;19;20517;-66
2022/04/05 02:15:37;;;;;;;9.43;8.43;;;;;;;4.09;95.85;99343.88;7398808;19;20007;-66
2022/04/05 02:18:08;;;;;;;;;;;;;;;4.07;96.61;99343.91;7400102;19;20035;-65
2022/04/05 02:20:36;;;;;;;9.05;8.15;;;;;;;4.05;96.60;99348.25;7401263;19;20001;-65
2022/04/05 02:23:04;;;;;;;9.23;8.30;;;;;;;4.04;96.83;99351.75;7397247;19;20022;-64
2022/04/05 02:25:33;;;;;;;9.02;8.10;;;;;;;4.03;96.90;99355.22;7397344;19;20014;-64
2022/04/05 02:28:02;;;;;;;9.40;8.32;;;;;;;4.03;97.58;99355.22;7396848;19;20026;-65
2022/04/05 02:30:30;;;;;;;9.48;7.78;;;;;;;4.03;98.05;99351.75;7397082;19;20022;-65
2022/04/05 02:32:58;;;;;;;9.85;8.85;;;;;;;4.01;98.14;99345.75;7396372;19;20074;-65
2022/04/05 02:35:29;;;;;;;8.32;7.50;;;;;;;4.01;98.59;99350.94;7396987;19;20035;-65
2022/04/05 02:38:01;;;;;;;9.30;8.20;;;;;;;4.01;98.08;99353.53;7398661;19;20510;-65
2022/04/05 02:40:29;;;;;;;10.02;7.93;;;;;;;4.02;98.22;99352.63;7399472;19;20018;-64
2022/04/05 02:42:57;;;;;;;12.63;8.55;;;;;;;4.02;98.41;99350.03;7394311;19;20026;-64
2022/04/05 02:45:25;;;;;;;8.57;7.30;;;;;;;4.03;98.90;99354.34;7398684;19;20363;-65
2022/04/05 02:47:53;;;;;;;14.55;8.88;;;;;;;4.03;98.95;99355.22;7397102;19;20039;-64
2022/04/05 02:50:22;;;;;;;13.35;8.98;;;;;;;4.04;98.60;99371.63;7398732;19;20031;-65
2022/04/05 02:52:53;;;;;;;11.00;8.80;;;;;;;4.05;99.03;99358.63;7398902;19;20022;-64
2022/04/05 02:55:21;;;;;;;8.75;7.38;;;;;;;4.06;99.35;99362.09;7397193;19;20029;-65
2022/04/05 02:57:50;;;;;;;8.70;7.45;;;;;;;4.07;99.78;99371.59;7396578;19;20042;-65
2022/04/05 03:00:20;;;;;;;8.95;6.53;;;;;;;4.06;99.63;99386.31;7396458;19;20027;-65
2022/04/05 03:02:48;;;;;;;8.90;7.65;;;;;;;4.08;99.34;99396.66;7398926;19;20034;-64
2022/04/05 03:05:21;;;;;;;8.93;7.63;;;;;;;4.08;99.41;99394.06;7398320;19;20022;-66
2022/04/05 03:07:49;;;;;;;6.00;4.93;;;;;;;4.05;99.64;99399.31;7397051;19;20037;-65
2022/04/05 03:10:20;;;;;;;5.72;2.88;;;;;;;3.98;98.65;99402.88;7395592;19;20380;-65
2022/04/05 03:12:48;;;;;;;4.20;2.80;;;;;;;3.89;98.41;99404.75;7398407;19;20032;-64
2022/04/05 03:15:16;;;;;;;5.43;2.20;;;;;;;3.81;98.89;99405.75;7395768;19;20039;-64
2022/04/05 03:17:46;;;;;;;4.10;2.53;;;;;;;3.72;99.13;99417.97;7397644;19;20018;-64
2022/04/05 03:20:15;;;;;;;5.20;2.83;;;;;;;3.68;99.35;99428.44;7396270;19;20026;-64
2022/04/05 03:22:44;;;;;;;5.15;2.83;;;;;;;3.64;99.70;99432.81;7397757;19;20018;-65
2022/04/05 03:25:13;;;;;;;5.28;2.63;;;;;;;3.62;100.00;99429.38;7395458;19;20031;-65
2022/04/05 03:27:45;;;;;;;6.22;2.22;;;;;;;3.59;100.00;99422.50;7395529;19;20031;-64
2022/04/05 03:30:16;;;;;;;4.28;2.58;;;;;;;3.58;100.00;99432.91;7396047;19;20022;-65
2022/04/05 03:32:44;;;;;;;5.97;2.25;;;;;;;3.55;100.00;99436.38;7395138;19;20010;-64
2022/04/05 03:35:12;;;;;;;5.65;2.38;;;;;;;3.54;100.00;99429.47;7395190;19;20014;-65
2022/04/05 03:37:41;;;;;;;5.65;2.00;;;;;;;3.53;100.00;99426.91;7395102;19;20031;-63
2022/04/05 03:40:12;;;;;;;6.65;1.95;;;;;;;3.49;100.00;99441.66;7396867;19;20111;-64
2022/04/05 03:42:40;;;;;;;8.05;2.38;;;;;;;3.46;100.00;99433.91;7395177;19;20037;-65
2022/04/05 03:45:12;;;;;;;8.40;1.60;;;;;;;3.42;100.00;99434.84;7394661;19;20035;-64
2022/04/05 03:47:40;;;;;;;4.60;1.60;;;;;;;3.40;100.00;99428.84;7396462;19;20032;-64
2022/04/05 03:50:09;;;;;;;7.57;1.90;;;;;;;3.37;100.00;99442.66;7394887;19;20015;-65
2022/04/05 03:52:37;;;;;;;6.00;1.42;;;;;;;3.34;100.00;99429.75;7394653;19;20022;-64
2022/04/05 03:55:06;;;;;;;3.30;1.60;;;;;;;3.31;100.00;99437.59;7393691;19;20481;-64
2022/04/05 03:57:34;;;;;;;5.57;1.77;;;;;;;3.31;100.00;99431.53;7394640;19;20526;-64
2022/04/05 04:00:02;;;;;;;9.07;2.50;;;;;;;3.29;100.00;99434.16;7394751;19;20491;-65
2022/04/05 04:02:35;;;;;;;11.02;1.70;;;;;;;3.27;100.00;99438.47;7394517;19;20015;-64
2022/04/05 04:05:03;;;;;;;8.45;1.48;;;;;;;3.28;100.00;99444.53;7394960;19;20018;-65
2022/04/05 04:07:31;;;;;;;6.07;1.50;;;;;;;3.26;100.00;99450.59;7394612;19;20035;-65
2022/04/05 04:10:04;;;;;;;5.22;1.45;;;;;;;3.26;100.00;99460.09;7394599;19;20057;-65
2022/04/05 04:12:32;;;;;;;6.90;1.52;;;;;;;3.26;100.00;99460.09;7394969;19;20010;-64
2022/04/05 04:15:00;;;;;;;5.28;1.50;;;;;;;3.24;100.00;99477.41;7394661;19;20019;-64
2022/04/05 04:17:28;;;;;;;10.57;1.92;;;;;;;3.22;100.00;99469.66;7394465;19;20029;-64
2022/04/05 04:19:59;;;;;;;12.63;1.60;;;;;;;3.20;100.00;99467.97;7394293;19;20018;-64
2022/04/05 04:22:27;;;;;;;4.47;1.30;;;;;;;3.18;100.00;99467.13;7394908;19;20029;-64
2022/04/05 04:24:56;;;;;;;5.70;1.75;;;;;;;3.19;100.00;99458.47;7393841;19;20363;-64
2022/04/05 04:27:24;;;;;;;9.18;1.90;;;;;;;3.18;100.00;99472.31;7394182;19;20019;-64
2022/04/05 04:29:52;;;;;;;4.05;1.48;;;;;;;3.17;100.00;99468.00;7393596;19;20036;-64
2022/04/05 04:32:21;;;;;;;8.07;1.83;;;;;;;3.15;100.00;99457.66;7393019;19;20027;-64
2022/04/05 04:34:49;;;;;;;6.88;2.00;;;;;;;3.16;100.00;99471.44;7393313;19;20018;-64
2022/04/05 04:37:20;;;;;;;5.93;1.60;;;;;;;3.14;100.00;99470.63;7395028;19;20042;-64
2022/04/05 04:39:48;;;;;;;8.00;2.05;;;;;;;3.15;100.00;99472.34;7393575;19;20031;-64
2022/04/05 04:42:16;;;;;;;6.53;1.70;;;;;;;3.14;100.00;99470.63;7395244;19;20505;-63
2022/04/05 04:44:44;;;;;;;6.40;2.00;;;;;;;3.13;100.00;99464.56;7393515;19;20023;-61
2022/04/05 04:47:12;;;;;;;5.30;1.60;;;;;;;3.14;100.00;99473.22;7394046;19;20010;-60
2022/04/05 04:49:41;;;;;;;6.43;2.00;;;;;;;3.14;100.00;99471.47;7393209;19;20022;-60
2022/04/05 04:52:09;;;;;;;8.63;2.17;;;;;;;3.14;100.00;99462.84;7392916;19;20030;-62
2022/04/05 04:54:40;;;;;;;8.43;1.98;;;;;;;3.14;100.00;99466.28;7392214;19;20490;-64
2022/04/05 04:57:08;;;;;;;7.30;2.10;;;;;;;3.14;100.00;99470.63;7392357;19;20018;-64
2022/04/05 04:59:36;;;;;;;8.70;2.10;;;;;;;3.13;100.00;99476.69;7392407;19;20011;-65
2022/04/05 05:02:05;;;;;;;11.55;2.30;;;;;;;3.14;100.00;99487.03;7392876;19;20027;-63
2022/04/05 05:04:33;;;;;;;8.88;1.98;;;;;;;3.14;100.00;99483.59;7391654;19;20039;-63
2022/04/05 05:07:01;;;;;;;9.18;2.10;;;;;;;3.14;100.00;99494.81;7395197;19;20022;-65
2022/04/05 05:09:30;;;;;;;10.73;2.35;;;;;;;3.15;100.00;99483.56;7397389;19;20014;-65
2022/04/05 05:12:00;;;;;;;10.85;2.42;;;;;;;3.17;100.00;99496.50;7398606;19;20015;-66
2022/04/05 05:14:30;;;;;;;6.53;2.38;;;;;;;3.18;100.00;99493.03;7399660;19;20023;-66
2022/04/05 05:16:58;;;;;;;8.25;2.60;;;;;;;3.18;100.00;99504.25;7401477;19;20018;-65
2022/04/05 05:19:26;;;;;;;9.55;2.45;;;;;;;3.19;100.00;99500.78;7398254;19;20418;-63
2022/04/05 05:21:54;;;;;;;9.82;2.58;;;;;;;3.20;100.00;99502.50;7398440;19;20022;-65
2022/04/05 05:24:22;;;;;;;10.13;3.03;;;;;;;3.22;100.00;99507.66;7398168;19;20018;-65
2022/04/05 05:27:15;;;;;;;10.52;2.83;;;;;;;3.24;100.00;99508.53;7400833;19;20022;-65
2022/04/05 05:29:43;;;;;;;10.48;3.05;;;;;;;3.26;100.00;99511.94;7401046;19;20430;-64
2022/04/05 05:32:24;;;;;;;13.10;3.75;;;;;;;3.28;100.00;99519.72;7401582;19;20018;-65
2022/04/05 05:34:53;;;;;;;7.95;2.45;;;;;;;3.28;100.00;99524.91;7398280;19;20018;-64
2022/04/05 05:37:21;;;;;;;14.65;2.83;;;;;;;3.28;100.00;99515.38;7400827;19;20022;-65
2022/04/05 05:39:49;;;;;;;10.07;3.38;;;;;;;3.31;100.00;99524.84;7400449;19;20025;-63
2022/04/05 05:42:20;;;;;;;17.25;3.25;;;;;;;3.32;100.00;99526.56;7400350;19;20019;-68
2022/04/05 05:44:48;;;;;;;13.57;3.08;;;;;;;3.33;100.00;99531.75;7398497;19;20039;-65
2022/04/05 05:47:16;;;;;;;15.43;5.00;;;;;;;3.34;100.00;99528.28;7397194;19;20014;-65
2022/04/05 05:49:44;;;;;;;15.23;5.78;;;;;;;3.35;100.00;99532.59;7398215;19;20035;-64
2022/04/05 05:52:13;;;;;;;9.10;2.28;;;;;;;3.36;100.00;99549.88;7397632;19;20035;-65
2022/04/05 05:54:41;;;;;;;7.05;2.20;;;;;;;3.39;100.00;99548.97;7398809;19;20054;-64
2022/04/05 05:57:10;;;;;;;9.15;2.60;;;;;;;3.41;100.00;99549.78;7400785;19;20018;-65
2022/04/05 05:59:40;;;;;;;8.93;3.30;;;;;;;3.45;100.00;99548.03;7397505;19;20414;-66
2022/04/05 06:02:09;;;;;;;9.18;2.90;;;;;;;3.47;100.00;99552.31;7400894;19;20023;-64
2022/04/05 06:04:37;;;;;;;11.07;2.17;;;;;;;3.49;100.00;99566.13;7396914;19;20485;-67
2022/04/05 06:07:06;;;;;;;7.10;2.03;;;;;;;3.53;100.00;99556.59;7398117;19;20026;-64
2022/04/05 06:09:34;;;;;;;17.65;2.85;;;;;;;3.51;100.00;99547.97;7397495;19;20010;-65
2022/04/05 06:12:02;;;;;;;11.52;2.50;;;;;;;3.61;100.00;99569.47;7397177;19;20015;-64
2022/04/05 06:14:30;;;;;;;14.85;2.35;;;;;;;3.64;100.00;99575.47;7398010;19;20423;-66
2022/04/05 06:17:01;;;;;;;8.52;2.47;;;;;;;3.64;100.00;99583.25;7397492;19;20035;-65
2022/04/05 06:19:29;;;;;;;9.23;2.15;;;;;;;3.66;100.00;99581.47;7397476;19;20043;-65
2022/04/05 06:21:57;;;;;;;8.38;3.22;;;;;;;3.67;100.00;99590.97;7396891;19;20035;-66
2022/04/05 06:24:25;;;;;;;8.68;2.35;;;;;;;3.69;100.00;99602.22;7397018;19;20102;-66
2022/04/05 06:26:53;;;;;;;13.05;2.70;;;;;;;3.73;99.87;99601.28;7396338;19;20019;-66
2022/04/05 06:29:21;;;;;;;6.50;2.50;;;;;;;3.78;99.80;99600.38;7396400;19;20420;-66
2022/04/05 06:31:49;;;;;;;8.40;2.58;;;;;;;3.82;99.74;99625.41;7398575;19;20126;-65
2022/04/05 06:34:27;;;;;;;11.63;2.45;;;;;;;3.86;99.27;99617.56;7394946;19;20010;-65
2022/04/05 06:36:55;;;;;;;6.43;2.60;;;;;;;3.90;99.42;99614.06;7399100;19;20039;-66
2022/04/05 06:39:24;;;;;;;12.05;3.10;;;;;;;3.97;99.57;99624.34;7399056;19;20014;-66
2022/04/05 06:41:52;;;;;;;11.38;3.47;;;;;;;4.01;98.79;99634.69;7398809;19;20533;-65
2022/04/05 06:44:20;;;;;;;8.77;2.30;;;;;;;4.03;98.23;99625.16;7397809;19;20039;-65
2022/04/05 06:46:48;;;;;;;9.73;2.42;;;;;;;4.07;97.19;99631.16;7398122;19;20015;-66
2022/04/05 06:49:16;;;;;;;8.35;2.05;;;;;;;4.10;96.89;99643.25;7396966;19;20026;-65
2022/04/05 06:51:47;;;;;;;10.43;2.00;;;;;;;4.13;96.82;99638.00;7398655;19;20014;-64
2022/04/05 06:54:15;;;;;;;11.73;2.20;;;;;;;4.15;96.95;99638.84;7395649;19;20019;-65
2022/04/05 06:56:43;;;;;;;7.43;2.65;;;;;;;4.18;96.85;99650.06;7396052;19;20032;-65
2022/04/05 06:59:11;;;;;;;8.45;1.70;;;;;;;4.19;95.32;99648.31;7396180;19;20019;-65
2022/04/05 07:01:40;;;;;;;10.57;2.10;;;;;;;4.22;95.17;99662.13;7396447;19;20035;-66
2022/04/05 07:04:08;;;;;;;7.30;1.70;;;;;;;4.23;94.53;99653.44;7396874;19;20035;-65
2022/04/05 07:06:36;;;;;;;10.50;2.50;;;;;;;4.28;95.12;99661.16;7398199;19;20022;-66
2022/04/05 07:09:07;;;;;;;6.90;1.70;;;;;;;4.31;93.75;99662.84;7395916;19;20481;-65
2022/04/05 07:11:35;;;;;;;9.20;1.90;;;;;;;4.34;94.67;99660.22;7398601;19;20021;-65
2022/04/05 07:14:03;;;;;;;8.93;2.10;;;;;;;4.38;95.05;99673.13;7396715;19;20042;-65
2022/04/05 07:16:32;;;;;;;6.03;1.80;;;;;;;4.43;94.33;99660.09;7394725;19;20415;-64
2022/04/05 07:19:00;;;;;;;6.18;1.88;;;;;;;4.44;93.51;99671.38;7397872;19;20031;-65
2022/04/05 07:21:28;;;;;;;9.98;2.50;;;;;;;4.44;92.10;99656.63;7397817;19;20011;-64
2022/04/05 07:23:56;;;;;;;7.53;2.15;;;;;;;4.44;90.20;99660.97;7396738;19;20014;-65
2022/04/05 07:26:26;;;;;;;8.38;2.65;;;;;;;4.42;90.26;99655.78;7396016;19;20373;-65
2022/04/05 07:28:55;;;;;;;7.88;2.20;;;;;;;4.43;90.22;99660.09;7395308;19;20100;-66
2022/04/05 07:31:23;;;;;;;7.45;1.92;;;;;;;4.45;87.96;99667.84;7397770;19;20022;-65
2022/04/05 07:33:51;;;;;;;6.53;1.67;;;;;;;4.46;88.82;99675.66;7395673;19;20470;-66
2022/04/05 07:36:19;;;;;;;8.77;2.17;;;;;;;4.50;89.12;99666.06;7395127;19;20038;-66
2022/04/05 07:38:47;;;;;;;10.02;2.15;;;;;;;4.52;87.78;99669.50;7397168;19;20023;-67
2022/04/05 07:41:15;;;;;;;11.50;1.95;;;;;;;4.55;88.52;99675.50;7395010;19;20435;-65
2022/04/05 07:43:46;;;;;;;7.80;2.20;;;;;;;4.60;88.83;99674.59;7396548;19;20018;-65
2022/04/05 07:46:14;;;;;;;9.48;2.30;;;;;;;4.63;88.00;99691.00;7396910;19;20022;-66
2022/04/05 07:48:42;;;;;;;6.88;1.98;;;;;;;4.67;87.33;99704.81;7395007;19;20027;-66
2022/04/05 07:51:11;;;;;;;7.80;2.42;;;;;;;4.73;88.51;99683.94;7395005;19;20035;-66
2022/04/05 07:53:39;;;;;;;11.65;2.72;;;;;;;4.78;88.19;99676.91;7394797;19;20039;-66
2022/04/05 07:56:08;;;;;;;7.95;2.38;;;;;;;4.81;86.69;99686.41;7394958;19;20022;-65
2022/04/05 07:58:36;;;;;;;7.93;3.97;;;;;;;4.82;86.94;99698.53;7394925;19;20018;-65
2022/04/05 08:01:06;;;;;;;7.55;2.65;;;;;;;4.82;85.48;99703.72;7394283;19;20018;-65
2022/04/05 08:03:36;;;;;;;8.52;2.10;;;;;;;4.81;85.09;99702.00;7395802;19;20035;-68
2022/04/05 08:06:04;;;;;;;7.25;1.75;;;;;;;4.81;85.37;99705.44;7394971;19;20011;-65
2022/04/05 08:08:33;;;;;;;11.27;2.72;;;;;;;4.83;85.02;99705.44;7395978;19;20018;-64
2022/04/05 08:11:01;;;;;;;8.05;3.70;;;;;;;4.87;85.56;99712.31;7395178;19;20018;-65
2022/04/05 08:13:29;;;;;;;10.82;3.88;;;;;;;4.90;82.92;99725.25;7395611;19;20035;-65
2022/04/05 08:15:58;;;;;;;10.75;3.08;;;;;;;4.93;81.99;99721.75;7396186;19;20108;-66
2022/04/05 08:18:29;;;;;;;12.27;4.70;;;;;;;4.97;81.42;99731.22;7393979;19;20364;-64
2022/04/05 08:20:57;;;;;;;5.47;1.63;;;;;;;5.01;81.04;99712.94;7396346;19;20035;-66
2022/04/05 08:23:26;;;;;;;11.60;3.25;;;;;;;5.06;81.04;99738.88;7394291;19;20022;-65
2022/04/05 08:25:54;;;;;;;8.98;2.88;;;;;;;5.11;80.11;99718.03;7395476;19;20042;-65
2022/04/05 08:28:23;;;;;;;10.55;3.05;;;;;;;5.14;78.36;99731.81;7394987;19;20018;-65
2022/04/05 08:30:51;;;;;;;7.35;2.45;;;;;;;5.17;77.32;99733.53;7395080;19;20018;-65
2022/04/05 08:33:19;;;;;;;12.18;4.32;;;;;;;5.21;77.85;99715.22;7392855;19;20010;-62
2022/04/05 08:35:50;;;;;;;5.68;1.40;;;;;;;5.23;78.03;99717.78;7395561;19;20014;-65
2022/04/05 08:38:18;;;;;;;6.47;1.90;;;;;;;5.28;75.82;99726.41;7393612;19;20087;-65
2022/04/05 08:40:46;;;;;;;5.45;1.88;;;;;;;5.33;76.67;99737.59;7390159;19;20400;-65
2022/04/05 08:43:14;;;;;;;5.55;1.85;;;;;;;5.35;77.19;99732.38;7393108;19;20485;-65
2022/04/05 08:45:45;;;;;;;3.30;1.25;;;;;;;5.40;72.93;99727.94;7393246;19;20445;-64
2022/04/05 08:48:15;;;;;;;3.38;1.30;;;;;;;5.46;76.61;99724.38;7393414;19;20018;-65
2022/04/05 08:50:43;;;;;;;5.05;1.80;;;;;;;5.54;74.46;99751.13;7393736;19;20014;-65
2022/04/05 08:53:14;;;;;;;2.72;1.38;;;;;;;5.60;72.74;99744.94;7394412;19;20051;-65
2022/04/05 08:55:42;;;;;;;7.03;1.85;;;;;;;5.63;74.44;99748.34;7395318;19;20022;-65
2022/04/05 08:58:10;;;;;;;7.10;1.63;;;;;;;5.69;74.23;99744.78;7394715;19;20022;-66
2022/04/05 09:00:38;;;;;;;4.70;1.70;;;;;;;5.70;71.45;99739.56;7394806;19;20022;-66
2022/04/05 09:03:08;;;;;;;3.55;1.00;;;;;;;5.71;71.90;99749.09;7393026;19;20032;-66
2022/04/05 09:05:38;;;;;;;7.22;1.15;;;;;;;5.76;71.78;99742.94;7392289;19;20023;-66
2022/04/05 09:08:23;;;;;;;7.63;1.50;;;;;;;5.79;72.12;99750.72;7392096;19;20423;-66
2022/04/05 09:10:53;;;;;;;5.32;2.22;;;;;;;5.84;74.08;99749.72;7392240;19;20477;-66
2022/04/05 09:13:25;;;;;;;5.68;1.20;;;;;;;5.91;70.86;99755.66;7392899;19;20015;-66
2022/04/05 09:15:58;;;;;;;5.53;0.98;;;;;;;5.98;72.52;99764.25;7394491;19;20018;-65
2022/04/05 09:18:34;;;;;;;3.47;0.90;;;;;;;6.04;72.35;99758.97;7393885;19;20481;-67
2022/04/05 09:21:02;;;;;;;7.28;1.40;;;;;;;6.11;71.74;99757.09;7393187;19;20082;-66
2022/04/05 09:23:38;;;;;;;5.93;1.92;;;;;;;6.14;71.75;99755.28;7392505;19;20035;-66
2022/04/05 09:26:08;;;;;;;8.10;3.25;;;;;;;6.21;72.60;99763.81;7394089;19;20389;-66
2022/04/05 09:28:39;;;;;;;6.32;2.05;;;;;;;6.25;71.61;99752.44;7394182;19;20049;-66
2022/04/05 09:31:10;;;;;;;4.80;2.42;;;;;;;6.29;70.53;99761.94;7393841;19;20078;-66
2022/04/05 09:33:41;;;;;;;10.32;4.95;;;;;;;6.31;72.18;99744.50;7392469;19;20027;-65
2022/04/05 09:36:14;;;;;;;8.25;2.65;;;;;;;6.39;71.11;99749.56;7394036;19;20021;-65
2022/04/05 09:38:47;;;;;;;8.93;2.83;;;;;;;6.43;71.00;99747.75;7394177;19;20035;-65
2022/04/05 09:41:18;;;;;;;6.13;1.33;;;;;;;6.44;71.72;99752.09;7392070;19;20026;-67
2022/04/05 09:43:57;;;;;;;8.98;3.00;;;;;;;6.44;66.90;99773.78;7393156;19;20040;-66
2022/04/05 09:46:28;;;;;;;6.57;1.98;;;;;;;6.49;68.41;99766.72;7391395;19;20032;-66
2022/04/05 09:49:08;;;;;;;4.93;1.27;;;;;;;6.51;67.39;99751.91;7391538;19;20045;-66
2022/04/05 09:51:43;;;;;;;5.85;1.63;;;;;;;6.56;68.86;99753.56;7393527;19;20036;-66
2022/04/05 09:54:27;;;;;;;5.32;1.60;;;;;;;6.61;64.26;99759.53;7398048;19;20018;-66
2022/04/05 09:57:03;;;;;;;5.50;1.45;;;;;;;6.64;65.33;99762.09;7401029;19;20013;-64
2022/04/05 09:59:39;;;;;;;3.90;1.20;;;;;;;6.68;67.31;99748.97;7398795;19;20011;-67
2022/04/05 10:02:13;;;;;;;5.07;1.42;;;;;;;6.75;66.04;99751.41;7397716;19;20354;-65
2022/04/05 10:05:07;;;;;;;3.67;1.03;;;;;;;6.82;63.56;99760.84;7398264;19;20035;-66
2022/04/05 10:07:36;;;;;;;5.25;1.23;;;;;;;6.92;63.77;99757.13;7397109;19;20107;-66
2022/04/05 10:10:09;;;;;;;6.78;1.60;;;;;;;6.99;63.50;99753.50;7396881;19;20350;-65
2022/04/05 10:12:37;;;;;;;4.50;1.25;;;;;;;7.11;63.46;99768.00;7399979;19;20014;-65
2022/04/05 10:15:06;;;;;;;10.55;2.28;;;;;;;7.24;65.10;99762.50;7397210;19;20018;-68
2022/04/05 10:17:35;;;;;;;2.90;1.42;;;;;;;7.32;63.09;99755.34;7399498;19;20022;-67
2022/04/05 10:20:04;;;;;;;4.70;1.45;;;;;;;7.34;65.16;99759.63;7396801;19;20031;-65
2022/04/05 10:22:33;;;;;;;5.85;1.70;;;;;;;7.37;65.37;99757.81;7399455;19;20018;-65
2022/04/05 10:25:02;;;;;;;5.13;2.05;;;;;;;7.39;63.28;99750.81;7395821;19;20022;-66
2022/04/05 10:27:33;;;;;;;5.95;1.35;;;;;;;7.37;62.86;99753.47;7394601;19;20454;-64
2022/04/05 10:30:07;;;;;;;4.80;1.63;;;;;;;7.34;61.50;99746.59;7397391;19;20035;-65
2022/04/05 10:32:43;;;;;;;6.70;1.20;;;;;;;7.34;62.32;99761.38;7395966;19;20481;-66
2022/04/05 10:35:13;;;;;;;5.18;0.98;;;;;;;7.34;61.94;99756.16;7396132;19;20529;-66
2022/04/05 10:37:42;;;;;;;2.13;0.93;;;;;;;7.40;62.96;99757.78;7396244;19;20031;-65
2022/04/05 10:40:20;;;;;;;4.88;0.85;;;;;;;7.48;60.64;99761.91;7396699;19;20035;-66
2022/04/05 10:42:53;;;;;;;1.80;0.73;;;;;;;7.52;59.85;99785.31;7398383;19;20500;-65
2022/04/05 10:45:23;;;;;;;5.75;1.45;;;;;;;7.54;60.09;99771.31;7398854;19;20045;-66
2022/04/05 10:48:03;;;;;;;2.80;0.65;;;;;;;7.58;60.65;99772.97;7400055;19;20018;-65
2022/04/05 10:50:31;;;;;;;5.57;1.40;;;;;;;7.61;59.79;99756.38;7397350;19;20434;-66
2022/04/05 10:53:20;;;;;;;4.70;1.50;;;;;;;7.61;59.35;99746.78;7398755;19;20018;-65
2022/04/05 10:56:16;;;;;;;7.45;2.30;;;;;;;7.60;59.20;99758.13;7396755;19;20015;-65
2022/04/05 10:59:29;;;;;;;6.30;1.77;;;;;;;7.64;62.06;99759.75;7396275;19;20037;-65
2022/04/05 11:02:00;;;;;;;5.75;1.75;;;;;;;7.73;62.49;99756.03;7398155;19;20074;-65
2022/04/05 11:04:35;;;;;;;3.72;1.30;;;;;;;7.78;60.91;99764.63;7392418;19;20426;-66
2022/04/05 11:07:14;;;;;;;4.00;1.10;;;;;;;7.76;59.81;99749.88;7395678;19;20018;-66
2022/04/05 11:09:50;;;;;;;4.07;1.15;;;;;;;7.80;59.55;99764.59;7395332;19;20045;-65
2022/04/05 11:12:24;;;;;;;4.97;1.30;;;;;;;7.80;60.30;99768.06;7395202;19;20018;-65
2022/04/05 11:14:55;;;;;;;5.63;1.20;;;;;;;7.81;61.84;99759.34;7394489;19;20042;-65
2022/04/05 11:17:27;;;;;;;5.35;0.95;;;;;;;7.82;60.07;99744.50;7397013;19;20007;-65
2022/04/05 11:19:58;;;;;;;2.95;1.02;;;;;;;7.89;62.04;99740.00;7394661;19;20478;-65
2022/04/05 11:22:39;;;;;;;2.40;1.35;;;;;;;7.90;58.90;99763.47;7397844;19;20023;-65
2022/04/05 11:25:10;;;;;;;7.40;1.33;;;;;;;7.96;59.91;99758.06;7394891;19;20018;-65
2022/04/05 11:27:45;;;;;;;2.88;0.85;;;;;;;7.98;61.33;99752.81;7396216;19;20018;-65
2022/04/05 11:30:41;;;;;;;3.60;1.10;;;;;;;8.04;59.46;99746.53;7394021;19;20086;-65
2022/04/05 11:33:23;;;;;;;2.70;1.10;;;;;;;8.13;60.16;99728.84;7394561;19;20019;-65
2022/04/05 11:35:53;;;;;;;7.65;1.30;;;;;;;8.24;61.83;99733.81;7396877;19;20018;-65
2022/04/05 11:38:29;;;;;;;5.20;0.93;;;;;;;8.34;60.32;99742.25;7394639;19;20022;-64
2022/04/05 11:41:02;;;;;;;7.93;1.20;;;;;;;8.37;60.31;99743.91;7394660;19;20029;-66
2022/04/05 11:43:33;;;;;;;3.85;1.02;;;;;;;8.40;61.83;99742.03;7394649;19;20043;-66
2022/04/05 11:46:03;;;;;;;2.65;0.80;;;;;;;8.42;61.91;99732.41;7394623;19;20022;-65
2022/04/05 11:48:34;;;;;;;6.82;1.38;;;;;;;8.43;58.89;99735.91;7397652;19;20015;-66
2022/04/05 11:51:09;;;;;;;8.13;1.65;;;;;;;8.43;60.00;99754.19;7394572;19;20439;-66
2022/04/05 11:53:37;;;;;;;6.57;1.20;;;;;;;8.40;60.95;99734.19;7396506;19;20082;-65